sensor_id;sensor_type;location;lat;lon;timestamp;P1;durP1;ratioP1;P2;durP2;ratioP2
22965;SDS011;11649;48.090;9.754;2024-01-11T00:00:10;52.25;;;23.15;;
22965;SDS011;11649;48.090;9.754;2024-01-11T00:02:37;54.65;;;22.83;;
22965;SDS011;11649;48.090;9.754;2024-01-11T00:05:04;50.20;;;22.42;;
22965;SDS011;11649;48.090;9.754;2024-01-11T00:07:32;59.40;;;24.33;;
22965;SDS011;11649;48.090;9.754;2024-01-11T00:10:01;49.13;;;22.73;;
22965;SDS011;11649;48.090;9.754;2024-01-11T00:12:28;55.80;;;22.45;;
22965;SDS011;11649;48.090;9.754;2024-01-11T00:14:56;55.63;;;23.80;;
22965;SDS011;11649;48.090;9.754;2024-01-11T00:17:25;50.72;;;23.10;;
22965;SDS011;11649;48.090;9.754;2024-01-11T00:19:51;52.90;;;23.27;;
22965;SDS011;11649;48.090;9.754;2024-01-11T00:22:18;48.03;;;22.00;;
22965;SDS011;11649;48.090;9.754;2024-01-11T00:24:45;55.20;;;23.67;;
22965;SDS011;11649;48.090;9.754;2024-01-11T00:27:12;51.60;;;21.77;;
22965;SDS011;11649;48.090;9.754;2024-01-11T00:29:39;50.60;;;22.45;;
22965;SDS011;11649;48.090;9.754;2024-01-11T00:32:06;53.22;;;22.83;;
22965;SDS011;11649;48.090;9.754;2024-01-11T00:34:33;50.25;;;23.15;;
22965;SDS011;11649;48.090;9.754;2024-01-11T00:36:59;50.25;;;22.40;;
22965;SDS011;11649;48.090;9.754;2024-01-11T00:39:26;51.60;;;22.35;;
22965;SDS011;11649;48.090;9.754;2024-01-11T00:41:53;50.47;;;22.85;;
22965;SDS011;11649;48.090;9.754;2024-01-11T00:44:20;48.05;;;21.02;;
22965;SDS011;11649;48.090;9.754;2024-01-11T00:46:46;48.97;;;21.92;;
22965;SDS011;11649;48.090;9.754;2024-01-11T00:49:13;54.65;;;23.00;;
22965;SDS011;11649;48.090;9.754;2024-01-11T00:51:40;52.20;;;23.27;;
22965;SDS011;11649;48.090;9.754;2024-01-11T00:54:07;50.35;;;22.38;;
22965;SDS011;11649;48.090;9.754;2024-01-11T00:56:34;55.58;;;23.80;;
22965;SDS011;11649;48.090;9.754;2024-01-11T00:59:00;53.63;;;22.85;;
22965;SDS011;11649;48.090;9.754;2024-01-11T01:01:27;54.33;;;22.90;;
22965;SDS011;11649;48.090;9.754;2024-01-11T01:03:54;50.08;;;22.85;;
22965;SDS011;11649;48.090;9.754;2024-01-11T01:06:21;56.30;;;23.25;;
22965;SDS011;11649;48.090;9.754;2024-01-11T01:08:48;53.10;;;23.58;;
22965;SDS011;11649;48.090;9.754;2024-01-11T01:11:14;49.97;;;23.42;;
22965;SDS011;11649;48.090;9.754;2024-01-11T01:13:41;53.50;;;23.30;;
22965;SDS011;11649;48.090;9.754;2024-01-11T01:16:08;58.60;;;23.88;;
22965;SDS011;11649;48.090;9.754;2024-01-11T01:18:35;59.10;;;23.98;;
22965;SDS011;11649;48.090;9.754;2024-01-11T01:21:02;52.45;;;22.42;;
22965;SDS011;11649;48.090;9.754;2024-01-11T01:23:28;48.40;;;22.55;;
22965;SDS011;11649;48.090;9.754;2024-01-11T01:25:55;58.00;;;23.80;;
22965;SDS011;11649;48.090;9.754;2024-01-11T01:28:22;49.65;;;23.25;;
22965;SDS011;11649;48.090;9.754;2024-01-11T01:30:49;46.30;;;21.70;;
22965;SDS011;11649;48.090;9.754;2024-01-11T01:33:16;53.88;;;23.45;;
22965;SDS011;11649;48.090;9.754;2024-01-11T01:35:43;53.88;;;23.15;;
22965;SDS011;11649;48.090;9.754;2024-01-11T01:38:09;53.22;;;22.25;;
22965;SDS011;11649;48.090;9.754;2024-01-11T01:40:37;47.33;;;21.35;;
22965;SDS011;11649;48.090;9.754;2024-01-11T01:43:06;50.08;;;22.48;;
22965;SDS011;11649;48.090;9.754;2024-01-11T01:45:34;49.70;;;23.05;;
22965;SDS011;11649;48.090;9.754;2024-01-11T01:48:01;51.85;;;22.88;;
22965;SDS011;11649;48.090;9.754;2024-01-11T01:50:29;54.30;;;23.95;;
22965;SDS011;11649;48.090;9.754;2024-01-11T01:52:56;56.90;;;22.17;;
22965;SDS011;11649;48.090;9.754;2024-01-11T01:55:24;52.35;;;22.15;;
22965;SDS011;11649;48.090;9.754;2024-01-11T01:57:52;43.80;;;20.67;;
22965;SDS011;11649;48.090;9.754;2024-01-11T02:00:19;49.20;;;20.95;;
22965;SDS011;11649;48.090;9.754;2024-01-11T02:02:47;48.45;;;19.30;;
22965;SDS011;11649;48.090;9.754;2024-01-11T02:05:17;48.53;;;20.92;;
22965;SDS011;11649;48.090;9.754;2024-01-11T02:07:44;50.70;;;21.05;;
22965;SDS011;11649;48.090;9.754;2024-01-11T02:10:12;45.15;;;19.95;;
22965;SDS011;11649;48.090;9.754;2024-01-11T02:12:39;43.50;;;19.45;;
22965;SDS011;11649;48.090;9.754;2024-01-11T02:15:07;48.40;;;20.73;;
22965;SDS011;11649;48.090;9.754;2024-01-11T02:17:34;47.90;;;20.75;;
22965;SDS011;11649;48.090;9.754;2024-01-11T02:20:01;50.85;;;20.30;;
22965;SDS011;11649;48.090;9.754;2024-01-11T02:22:37;50.65;;;21.63;;
22965;SDS011;11649;48.090;9.754;2024-01-11T02:25:06;47.28;;;20.05;;
22965;SDS011;11649;48.090;9.754;2024-01-11T02:27:48;51.28;;;20.77;;
22965;SDS011;11649;48.090;9.754;2024-01-11T02:30:16;50.15;;;21.23;;
22965;SDS011;11649;48.090;9.754;2024-01-11T02:32:44;48.13;;;21.38;;
22965;SDS011;11649;48.090;9.754;2024-01-11T02:35:15;53.38;;;22.85;;
22965;SDS011;11649;48.090;9.754;2024-01-11T02:37:42;52.83;;;21.98;;
22965;SDS011;11649;48.090;9.754;2024-01-11T02:40:10;52.65;;;22.42;;
22965;SDS011;11649;48.090;9.754;2024-01-11T02:42:40;48.00;;;22.08;;
22965;SDS011;11649;48.090;9.754;2024-01-11T02:45:06;56.38;;;23.08;;
22965;SDS011;11649;48.090;9.754;2024-01-11T02:47:33;52.42;;;20.63;;
22965;SDS011;11649;48.090;9.754;2024-01-11T02:50:00;52.58;;;22.60;;
22965;SDS011;11649;48.090;9.754;2024-01-11T02:52:27;51.08;;;22.27;;
22965;SDS011;11649;48.090;9.754;2024-01-11T02:54:54;44.95;;;20.17;;
22965;SDS011;11649;48.090;9.754;2024-01-11T02:57:21;48.65;;;21.65;;
22965;SDS011;11649;48.090;9.754;2024-01-11T02:59:47;45.83;;;22.02;;
22965;SDS011;11649;48.090;9.754;2024-01-11T03:02:15;48.65;;;20.88;;
22965;SDS011;11649;48.090;9.754;2024-01-11T03:04:42;48.45;;;20.65;;
22965;SDS011;11649;48.090;9.754;2024-01-11T03:07:09;44.45;;;20.33;;
22965;SDS011;11649;48.090;9.754;2024-01-11T03:09:36;51.20;;;22.17;;
22965;SDS011;11649;48.090;9.754;2024-01-11T03:12:03;49.95;;;20.80;;
22965;SDS011;11649;48.090;9.754;2024-01-11T03:14:30;49.50;;;20.30;;
22965;SDS011;11649;48.090;9.754;2024-01-11T03:16:57;47.28;;;20.55;;
22965;SDS011;11649;48.090;9.754;2024-01-11T03:19:24;52.72;;;22.50;;
22965;SDS011;11649;48.090;9.754;2024-01-11T03:21:50;50.60;;;20.38;;
22965;SDS011;11649;48.090;9.754;2024-01-11T03:24:17;47.10;;;20.15;;
22965;SDS011;11649;48.090;9.754;2024-01-11T03:26:44;47.70;;;21.02;;
22965;SDS011;11649;48.090;9.754;2024-01-11T03:29:11;60.53;;;22.02;;
22965;SDS011;11649;48.090;9.754;2024-01-11T03:31:38;50.90;;;21.05;;
22965;SDS011;11649;48.090;9.754;2024-01-11T03:34:07;49.05;;;20.75;;
22965;SDS011;11649;48.090;9.754;2024-01-11T03:36:34;49.47;;;21.48;;
22965;SDS011;11649;48.090;9.754;2024-01-11T03:39:01;52.20;;;21.98;;
22965;SDS011;11649;48.090;9.754;2024-01-11T03:41:28;50.20;;;21.60;;
22965;SDS011;11649;48.090;9.754;2024-01-11T03:43:55;53.17;;;22.67;;
22965;SDS011;11649;48.090;9.754;2024-01-11T03:46:22;52.33;;;21.02;;
22965;SDS011;11649;48.090;9.754;2024-01-11T03:48:48;49.42;;;20.33;;
22965;SDS011;11649;48.090;9.754;2024-01-11T03:51:15;49.85;;;20.92;;
22965;SDS011;11649;48.090;9.754;2024-01-11T03:53:42;50.05;;;22.02;;
22965;SDS011;11649;48.090;9.754;2024-01-11T03:56:09;45.15;;;19.42;;
22965;SDS011;11649;48.090;9.754;2024-01-11T03:58:36;43.67;;;17.95;;
22965;SDS011;11649;48.090;9.754;2024-01-11T04:01:05;53.05;;;20.75;;
22965;SDS011;11649;48.090;9.754;2024-01-11T04:03:35;47.42;;;19.92;;
22965;SDS011;11649;48.090;9.754;2024-01-11T04:06:03;44.78;;;19.77;;
22965;SDS011;11649;48.090;9.754;2024-01-11T04:08:30;52.85;;;19.63;;
22965;SDS011;11649;48.090;9.754;2024-01-11T04:10:57;46.13;;;19.77;;
22965;SDS011;11649;48.090;9.754;2024-01-11T04:13:24;42.50;;;18.35;;
22965;SDS011;11649;48.090;9.754;2024-01-11T04:15:51;46.90;;;20.10;;
22965;SDS011;11649;48.090;9.754;2024-01-11T04:18:18;49.90;;;19.05;;
22965;SDS011;11649;48.090;9.754;2024-01-11T04:20:45;45.35;;;19.38;;
22965;SDS011;11649;48.090;9.754;2024-01-11T04:23:11;43.35;;;18.45;;
22965;SDS011;11649;48.090;9.754;2024-01-11T04:25:38;40.47;;;18.13;;
22965;SDS011;11649;48.090;9.754;2024-01-11T04:28:05;46.33;;;19.02;;
22965;SDS011;11649;48.090;9.754;2024-01-11T04:30:32;44.50;;;19.27;;
22965;SDS011;11649;48.090;9.754;2024-01-11T04:32:58;40.17;;;17.83;;
22965;SDS011;11649;48.090;9.754;2024-01-11T04:35:26;41.35;;;16.98;;
22965;SDS011;11649;48.090;9.754;2024-01-11T04:37:52;36.00;;;16.38;;
22965;SDS011;11649;48.090;9.754;2024-01-11T04:40:19;43.58;;;17.02;;
22965;SDS011;11649;48.090;9.754;2024-01-11T04:42:46;39.72;;;15.95;;
22965;SDS011;11649;48.090;9.754;2024-01-11T04:45:13;42.40;;;16.77;;
22965;SDS011;11649;48.090;9.754;2024-01-11T04:47:40;44.35;;;18.45;;
22965;SDS011;11649;48.090;9.754;2024-01-11T04:50:07;41.80;;;17.05;;
22965;SDS011;11649;48.090;9.754;2024-01-11T04:52:34;40.88;;;15.88;;
22965;SDS011;11649;48.090;9.754;2024-01-11T04:55:01;38.63;;;16.08;;
22965;SDS011;11649;48.090;9.754;2024-01-11T04:57:28;39.78;;;16.20;;
22965;SDS011;11649;48.090;9.754;2024-01-11T04:59:55;42.00;;;17.23;;
22965;SDS011;11649;48.090;9.754;2024-01-11T05:02:24;42.75;;;17.20;;
22965;SDS011;11649;48.090;9.754;2024-01-11T05:04:53;36.85;;;15.73;;
22965;SDS011;11649;48.090;9.754;2024-01-11T05:07:20;38.88;;;16.00;;
22965;SDS011;11649;48.090;9.754;2024-01-11T05:09:47;39.13;;;16.17;;
22965;SDS011;11649;48.090;9.754;2024-01-11T05:12:14;36.13;;;15.93;;
22965;SDS011;11649;48.090;9.754;2024-01-11T05:14:40;42.78;;;17.80;;
22965;SDS011;11649;48.090;9.754;2024-01-11T05:17:07;37.63;;;17.05;;
22965;SDS011;11649;48.090;9.754;2024-01-11T05:19:34;38.42;;;17.23;;
22965;SDS011;11649;48.090;9.754;2024-01-11T05:22:01;38.20;;;15.57;;
22965;SDS011;11649;48.090;9.754;2024-01-11T05:24:28;36.38;;;13.60;;
22965;SDS011;11649;48.090;9.754;2024-01-11T05:26:55;33.38;;;14.43;;
22965;SDS011;11649;48.090;9.754;2024-01-11T05:29:21;36.58;;;14.32;;
22965;SDS011;11649;48.090;9.754;2024-01-11T05:31:48;30.90;;;14.82;;
22965;SDS011;11649;48.090;9.754;2024-01-11T05:34:15;36.47;;;15.25;;
22965;SDS011;11649;48.090;9.754;2024-01-11T05:36:42;32.20;;;14.07;;
22965;SDS011;11649;48.090;9.754;2024-01-11T05:39:09;31.02;;;13.98;;
22965;SDS011;11649;48.090;9.754;2024-01-11T05:41:36;32.47;;;15.00;;
22965;SDS011;11649;48.090;9.754;2024-01-11T05:44:03;33.15;;;14.50;;
22965;SDS011;11649;48.090;9.754;2024-01-11T05:46:30;34.67;;;14.00;;
22965;SDS011;11649;48.090;9.754;2024-01-11T05:48:59;33.83;;;14.15;;
22965;SDS011;11649;48.090;9.754;2024-01-11T05:51:26;33.95;;;13.20;;
22965;SDS011;11649;48.090;9.754;2024-01-11T05:53:53;32.35;;;13.82;;
22965;SDS011;11649;48.090;9.754;2024-01-11T05:56:20;31.77;;;12.70;;
22965;SDS011;11649;48.090;9.754;2024-01-11T05:58:47;29.88;;;11.90;;
22965;SDS011;11649;48.090;9.754;2024-01-11T06:01:14;27.83;;;12.25;;
22965;SDS011;11649;48.090;9.754;2024-01-11T06:03:41;27.52;;;12.20;;
22965;SDS011;11649;48.090;9.754;2024-01-11T06:06:08;28.10;;;13.13;;
22965;SDS011;11649;48.090;9.754;2024-01-11T06:08:35;29.00;;;11.75;;
22965;SDS011;11649;48.090;9.754;2024-01-11T06:11:03;30.17;;;12.60;;
22965;SDS011;11649;48.090;9.754;2024-01-11T06:13:30;31.13;;;12.55;;
22965;SDS011;11649;48.090;9.754;2024-01-11T06:15:57;27.45;;;12.35;;
22965;SDS011;11649;48.090;9.754;2024-01-11T06:18:24;27.00;;;12.15;;
22965;SDS011;11649;48.090;9.754;2024-01-11T06:20:51;26.52;;;12.30;;
22965;SDS011;11649;48.090;9.754;2024-01-11T06:23:18;27.00;;;11.70;;
22965;SDS011;11649;48.090;9.754;2024-01-11T06:25:46;30.05;;;12.00;;
22965;SDS011;11649;48.090;9.754;2024-01-11T06:28:12;31.13;;;13.15;;
22965;SDS011;11649;48.090;9.754;2024-01-11T06:30:40;27.77;;;10.98;;
22965;SDS011;11649;48.090;9.754;2024-01-11T06:33:07;27.98;;;12.30;;
22965;SDS011;11649;48.090;9.754;2024-01-11T06:35:34;38.53;;;13.15;;
22965;SDS011;11649;48.090;9.754;2024-01-11T06:38:01;36.92;;;13.55;;
22965;SDS011;11649;48.090;9.754;2024-01-11T06:40:27;33.90;;;12.45;;
22965;SDS011;11649;48.090;9.754;2024-01-11T06:42:54;31.40;;;14.23;;
22965;SDS011;11649;48.090;9.754;2024-01-11T06:45:21;32.85;;;12.82;;
22965;SDS011;11649;48.090;9.754;2024-01-11T06:47:48;30.45;;;12.68;;
22965;SDS011;11649;48.090;9.754;2024-01-11T06:50:16;39.42;;;14.23;;
22965;SDS011;11649;48.090;9.754;2024-01-11T06:52:43;37.42;;;14.10;;
22965;SDS011;11649;48.090;9.754;2024-01-11T06:55:09;37.88;;;13.95;;
22965;SDS011;11649;48.090;9.754;2024-01-11T06:57:37;32.05;;;12.70;;
22965;SDS011;11649;48.090;9.754;2024-01-11T07:00:04;34.97;;;12.88;;
22965;SDS011;11649;48.090;9.754;2024-01-11T07:02:33;38.33;;;13.02;;
22965;SDS011;11649;48.090;9.754;2024-01-11T07:05:01;36.67;;;13.40;;
22965;SDS011;11649;48.090;9.754;2024-01-11T07:07:28;39.53;;;13.57;;
22965;SDS011;11649;48.090;9.754;2024-01-11T07:09:55;33.15;;;13.57;;
22965;SDS011;11649;48.090;9.754;2024-01-11T07:12:22;35.08;;;13.77;;
22965;SDS011;11649;48.090;9.754;2024-01-11T07:14:48;36.63;;;13.30;;
22965;SDS011;11649;48.090;9.754;2024-01-11T07:17:15;38.83;;;13.68;;
22965;SDS011;11649;48.090;9.754;2024-01-11T07:19:42;43.90;;;14.68;;
22965;SDS011;11649;48.090;9.754;2024-01-11T07:22:09;34.95;;;13.63;;
22965;SDS011;11649;48.090;9.754;2024-01-11T07:24:36;37.00;;;14.48;;
22965;SDS011;11649;48.090;9.754;2024-01-11T07:27:04;39.67;;;14.38;;
22965;SDS011;11649;48.090;9.754;2024-01-11T07:29:35;37.53;;;15.07;;
22965;SDS011;11649;48.090;9.754;2024-01-11T07:32:02;34.97;;;13.23;;
22965;SDS011;11649;48.090;9.754;2024-01-11T07:37:16;37.53;;;13.75;;
22965;SDS011;11649;48.090;9.754;2024-01-11T07:39:43;35.67;;;13.93;;
22965;SDS011;11649;48.090;9.754;2024-01-11T07:42:09;32.90;;;13.65;;
22965;SDS011;11649;48.090;9.754;2024-01-11T07:44:36;33.40;;;13.73;;
22965;SDS011;11649;48.090;9.754;2024-01-11T07:47:03;33.97;;;13.57;;
22965;SDS011;11649;48.090;9.754;2024-01-11T07:49:30;41.80;;;13.95;;
22965;SDS011;11649;48.090;9.754;2024-01-11T07:51:57;42.00;;;14.50;;
22965;SDS011;11649;48.090;9.754;2024-01-11T07:54:24;38.30;;;13.10;;
22965;SDS011;11649;48.090;9.754;2024-01-11T07:56:51;37.97;;;15.20;;
22965;SDS011;11649;48.090;9.754;2024-01-11T07:59:19;41.67;;;15.25;;
22965;SDS011;11649;48.090;9.754;2024-01-11T08:01:46;37.63;;;14.23;;
22965;SDS011;11649;48.090;9.754;2024-01-11T08:04:14;39.75;;;15.00;;
22965;SDS011;11649;48.090;9.754;2024-01-11T08:06:41;38.78;;;14.93;;
22965;SDS011;11649;48.090;9.754;2024-01-11T08:09:08;36.38;;;14.65;;
22965;SDS011;11649;48.090;9.754;2024-01-11T08:11:36;36.60;;;13.80;;
22965;SDS011;11649;48.090;9.754;2024-01-11T08:14:07;39.08;;;15.10;;
22965;SDS011;11649;48.090;9.754;2024-01-11T08:16:35;40.08;;;14.80;;
22965;SDS011;11649;48.090;9.754;2024-01-11T08:19:01;40.33;;;14.80;;
22965;SDS011;11649;48.090;9.754;2024-01-11T08:21:29;39.33;;;15.00;;
22965;SDS011;11649;48.090;9.754;2024-01-11T08:23:57;37.08;;;14.48;;
22965;SDS011;11649;48.090;9.754;2024-01-11T08:26:29;40.88;;;15.70;;
22965;SDS011;11649;48.090;9.754;2024-01-11T08:28:57;42.42;;;16.10;;
22965;SDS011;11649;48.090;9.754;2024-01-11T08:31:24;42.47;;;15.23;;
22965;SDS011;11649;48.090;9.754;2024-01-11T08:33:51;39.88;;;16.05;;
22965;SDS011;11649;48.090;9.754;2024-01-11T08:36:19;49.20;;;17.20;;
22965;SDS011;11649;48.090;9.754;2024-01-11T08:38:46;41.72;;;14.95;;
22965;SDS011;11649;48.090;9.754;2024-01-11T08:41:13;46.45;;;16.80;;
22965;SDS011;11649;48.090;9.754;2024-01-11T08:43:40;40.67;;;15.88;;
22965;SDS011;11649;48.090;9.754;2024-01-11T08:46:07;42.75;;;14.98;;
22965;SDS011;11649;48.090;9.754;2024-01-11T08:48:34;36.15;;;15.07;;
22965;SDS011;11649;48.090;9.754;2024-01-11T08:51:01;42.70;;;15.95;;
22965;SDS011;11649;48.090;9.754;2024-01-11T08:53:28;46.60;;;16.02;;
22965;SDS011;11649;48.090;9.754;2024-01-11T08:55:54;45.35;;;16.98;;
22965;SDS011;11649;48.090;9.754;2024-01-11T08:58:23;47.70;;;16.70;;
22965;SDS011;11649;48.090;9.754;2024-01-11T09:00:50;41.90;;;17.30;;
22965;SDS011;11649;48.090;9.754;2024-01-11T09:03:17;42.90;;;15.55;;
22965;SDS011;11649;48.090;9.754;2024-01-11T09:05:44;46.45;;;17.48;;
22965;SDS011;11649;48.090;9.754;2024-01-11T09:08:11;43.53;;;16.90;;
22965;SDS011;11649;48.090;9.754;2024-01-11T09:10:39;48.45;;;17.25;;
22965;SDS011;11649;48.090;9.754;2024-01-11T09:13:08;43.70;;;17.17;;
22965;SDS011;11649;48.090;9.754;2024-01-11T09:15:37;48.63;;;17.80;;
22965;SDS011;11649;48.090;9.754;2024-01-11T09:18:04;50.00;;;18.30;;
22965;SDS011;11649;48.090;9.754;2024-01-11T09:20:31;47.47;;;18.10;;
22965;SDS011;11649;48.090;9.754;2024-01-11T09:22:58;52.00;;;20.58;;
22965;SDS011;11649;48.090;9.754;2024-01-11T09:25:25;63.10;;;24.20;;
22965;SDS011;11649;48.090;9.754;2024-01-11T09:27:52;64.78;;;24.48;;
22965;SDS011;11649;48.090;9.754;2024-01-11T09:30:18;68.93;;;25.00;;
22965;SDS011;11649;48.090;9.754;2024-01-11T09:32:45;64.95;;;24.95;;
22965;SDS011;11649;48.090;9.754;2024-01-11T09:35:14;70.22;;;23.73;;
22965;SDS011;11649;48.090;9.754;2024-01-11T09:37:42;59.58;;;24.40;;
22965;SDS011;11649;48.090;9.754;2024-01-11T09:40:13;63.25;;;24.13;;
22965;SDS011;11649;48.090;9.754;2024-01-11T09:42:39;68.78;;;24.70;;
22965;SDS011;11649;48.090;9.754;2024-01-11T09:45:09;63.80;;;23.35;;
22965;SDS011;11649;48.090;9.754;2024-01-11T09:47:39;68.22;;;23.77;;
22965;SDS011;11649;48.090;9.754;2024-01-11T09:50:07;63.90;;;22.73;;
22965;SDS011;11649;48.090;9.754;2024-01-11T09:52:34;63.75;;;22.35;;
22965;SDS011;11649;48.090;9.754;2024-01-11T09:55:05;63.88;;;24.00;;
22965;SDS011;11649;48.090;9.754;2024-01-11T09:57:32;59.65;;;24.10;;
22965;SDS011;11649;48.090;9.754;2024-01-11T10:00:02;71.22;;;24.30;;
22965;SDS011;11649;48.090;9.754;2024-01-11T10:02:34;50.03;;;18.60;;
22965;SDS011;11649;48.090;9.754;2024-01-11T10:05:00;62.83;;;24.55;;
22965;SDS011;11649;48.090;9.754;2024-01-11T10:07:27;62.25;;;24.20;;
22965;SDS011;11649;48.090;9.754;2024-01-11T10:09:56;56.40;;;23.13;;
22965;SDS011;11649;48.090;9.754;2024-01-11T10:12:24;51.60;;;20.90;;
22965;SDS011;11649;48.090;9.754;2024-01-11T10:14:52;58.88;;;23.08;;
22965;SDS011;11649;48.090;9.754;2024-01-11T10:17:19;70.00;;;22.88;;
22965;SDS011;11649;48.090;9.754;2024-01-11T10:19:52;62.63;;;24.17;;
22965;SDS011;11649;48.090;9.754;2024-01-11T10:22:19;69.65;;;24.40;;
22965;SDS011;11649;48.090;9.754;2024-01-11T10:24:50;61.90;;;23.83;;
22965;SDS011;11649;48.090;9.754;2024-01-11T10:27:16;65.63;;;23.70;;
22965;SDS011;11649;48.090;9.754;2024-01-11T10:29:43;62.40;;;23.48;;
22965;SDS011;11649;48.090;9.754;2024-01-11T10:32:12;57.90;;;23.13;;
22965;SDS011;11649;48.090;9.754;2024-01-11T10:34:39;58.75;;;23.25;;
22965;SDS011;11649;48.090;9.754;2024-01-11T10:37:07;66.55;;;25.15;;
22965;SDS011;11649;48.090;9.754;2024-01-11T10:39:36;57.92;;;23.90;;
22965;SDS011;11649;48.090;9.754;2024-01-11T10:42:06;58.05;;;23.67;;
22965;SDS011;11649;48.090;9.754;2024-01-11T10:44:35;62.83;;;23.52;;
22965;SDS011;11649;48.090;9.754;2024-01-11T10:47:08;61.58;;;23.08;;
22965;SDS011;11649;48.090;9.754;2024-01-11T10:49:38;54.40;;;22.83;;
22965;SDS011;11649;48.090;9.754;2024-01-11T10:52:07;60.58;;;22.80;;
22965;SDS011;11649;48.090;9.754;2024-01-11T10:54:34;59.67;;;24.40;;
22965;SDS011;11649;48.090;9.754;2024-01-11T10:57:03;64.88;;;25.00;;
22965;SDS011;11649;48.090;9.754;2024-01-11T10:59:32;60.35;;;24.75;;
22965;SDS011;11649;48.090;9.754;2024-01-11T11:02:04;66.78;;;24.17;;
22965;SDS011;11649;48.090;9.754;2024-01-11T11:04:33;54.15;;;22.35;;
22965;SDS011;11649;48.090;9.754;2024-01-11T11:07:01;57.72;;;21.65;;
22965;SDS011;11649;48.090;9.754;2024-01-11T11:09:29;58.63;;;22.70;;
22965;SDS011;11649;48.090;9.754;2024-01-11T11:11:59;60.13;;;22.58;;
22965;SDS011;11649;48.090;9.754;2024-01-11T11:14:27;61.22;;;24.17;;
22965;SDS011;11649;48.090;9.754;2024-01-11T11:16:54;61.58;;;24.77;;
22965;SDS011;11649;48.090;9.754;2024-01-11T11:19:21;61.05;;;24.23;;
22965;SDS011;11649;48.090;9.754;2024-01-11T11:21:48;69.30;;;25.90;;
22965;SDS011;11649;48.090;9.754;2024-01-11T11:24:17;63.45;;;24.77;;
22965;SDS011;11649;48.090;9.754;2024-01-11T11:26:46;66.05;;;24.50;;
22965;SDS011;11649;48.090;9.754;2024-01-11T11:29:15;59.33;;;24.30;;
22965;SDS011;11649;48.090;9.754;2024-01-11T11:31:43;61.85;;;25.17;;
22965;SDS011;11649;48.090;9.754;2024-01-11T11:34:20;61.85;;;24.05;;
22965;SDS011;11649;48.090;9.754;2024-01-11T11:37:06;69.18;;;26.40;;
22965;SDS011;11649;48.090;9.754;2024-01-11T11:39:33;63.78;;;24.52;;
22965;SDS011;11649;48.090;9.754;2024-01-11T11:42:01;57.75;;;22.95;;
22965;SDS011;11649;48.090;9.754;2024-01-11T11:44:32;58.67;;;24.42;;
22965;SDS011;11649;48.090;9.754;2024-01-11T11:49:57;58.67;;;25.20;;
22965;SDS011;11649;48.090;9.754;2024-01-11T11:52:37;57.95;;;23.20;;
22965;SDS011;11649;48.090;9.754;2024-01-11T11:55:35;55.97;;;21.65;;
22965;SDS011;11649;48.090;9.754;2024-01-11T11:58:02;54.92;;;23.73;;
22965;SDS011;11649;48.090;9.754;2024-01-11T12:00:29;65.22;;;23.27;;
22965;SDS011;11649;48.090;9.754;2024-01-11T12:03:14;61.78;;;24.25;;
22965;SDS011;11649;48.090;9.754;2024-01-11T12:06:18;43.60;;;17.00;;
22965;SDS011;11649;48.090;9.754;2024-01-11T12:08:50;55.20;;;23.17;;
22965;SDS011;11649;48.090;9.754;2024-01-11T12:11:28;57.08;;;22.70;;
22965;SDS011;11649;48.090;9.754;2024-01-11T12:14:16;56.85;;;21.77;;
22965;SDS011;11649;48.090;9.754;2024-01-11T12:16:59;55.85;;;22.38;;
22965;SDS011;11649;48.090;9.754;2024-01-11T12:19:26;54.95;;;22.17;;
22965;SDS011;11649;48.090;9.754;2024-01-11T12:21:54;57.30;;;22.77;;
22965;SDS011;11649;48.090;9.754;2024-01-11T12:24:21;63.80;;;24.25;;
22965;SDS011;11649;48.090;9.754;2024-01-11T12:26:49;57.65;;;23.23;;
22965;SDS011;11649;48.090;9.754;2024-01-11T12:29:24;55.13;;;23.63;;
22965;SDS011;11649;48.090;9.754;2024-01-11T12:31:51;56.40;;;23.42;;
22965;SDS011;11649;48.090;9.754;2024-01-11T12:34:18;69.25;;;26.83;;
22965;SDS011;11649;48.090;9.754;2024-01-11T12:36:46;62.40;;;25.75;;
22965;SDS011;11649;48.090;9.754;2024-01-11T12:39:13;62.50;;;25.90;;
22965;SDS011;11649;48.090;9.754;2024-01-11T12:41:43;70.55;;;26.52;;
22965;SDS011;11649;48.090;9.754;2024-01-11T12:44:10;65.50;;;26.45;;
22965;SDS011;11649;48.090;9.754;2024-01-11T12:46:37;60.08;;;25.25;;
22965;SDS011;11649;48.090;9.754;2024-01-11T12:49:04;62.67;;;26.10;;
22965;SDS011;11649;48.090;9.754;2024-01-11T12:51:31;54.10;;;24.48;;
22965;SDS011;11649;48.090;9.754;2024-01-11T12:53:58;66.00;;;27.30;;
22965;SDS011;11649;48.090;9.754;2024-01-11T12:56:26;64.43;;;25.75;;
22965;SDS011;11649;48.090;9.754;2024-01-11T12:59:04;57.67;;;25.13;;
22965;SDS011;11649;48.090;9.754;2024-01-11T13:01:36;60.55;;;24.45;;
22965;SDS011;11649;48.090;9.754;2024-01-11T13:04:04;61.85;;;25.67;;
22965;SDS011;11649;48.090;9.754;2024-01-11T13:06:32;60.17;;;25.08;;
22965;SDS011;11649;48.090;9.754;2024-01-11T13:09:01;62.05;;;24.58;;
22965;SDS011;11649;48.090;9.754;2024-01-11T13:11:28;61.63;;;26.92;;
22965;SDS011;11649;48.090;9.754;2024-01-11T13:13:55;59.30;;;23.90;;
22965;SDS011;11649;48.090;9.754;2024-01-11T13:16:24;59.38;;;23.92;;
22965;SDS011;11649;48.090;9.754;2024-01-11T13:18:51;56.47;;;24.35;;
22965;SDS011;11649;48.090;9.754;2024-01-11T13:21:18;60.45;;;25.38;;
22965;SDS011;11649;48.090;9.754;2024-01-11T13:23:45;59.17;;;24.02;;
22965;SDS011;11649;48.090;9.754;2024-01-11T13:26:13;64.47;;;25.60;;
22965;SDS011;11649;48.090;9.754;2024-01-11T13:28:40;64.15;;;25.35;;
22965;SDS011;11649;48.090;9.754;2024-01-11T13:31:10;63.10;;;25.55;;
22965;SDS011;11649;48.090;9.754;2024-01-11T13:33:40;59.83;;;24.23;;
22965;SDS011;11649;48.090;9.754;2024-01-11T13:36:07;61.92;;;24.23;;
22965;SDS011;11649;48.090;9.754;2024-01-11T13:38:34;62.75;;;26.08;;
22965;SDS011;11649;48.090;9.754;2024-01-11T13:41:02;63.70;;;26.35;;
22965;SDS011;11649;48.090;9.754;2024-01-11T13:43:29;57.78;;;24.33;;
22965;SDS011;11649;48.090;9.754;2024-01-11T13:45:56;60.88;;;26.33;;
22965;SDS011;11649;48.090;9.754;2024-01-11T13:48:27;65.32;;;25.83;;
22965;SDS011;11649;48.090;9.754;2024-01-11T13:50:58;66.10;;;26.27;;
22965;SDS011;11649;48.090;9.754;2024-01-11T13:53:26;60.72;;;25.45;;
22965;SDS011;11649;48.090;9.754;2024-01-11T13:55:53;58.75;;;24.00;;
22965;SDS011;11649;48.090;9.754;2024-01-11T13:58:20;70.22;;;27.42;;
22965;SDS011;11649;48.090;9.754;2024-01-11T14:00:47;68.78;;;27.15;;
22965;SDS011;11649;48.090;9.754;2024-01-11T14:03:14;60.80;;;25.52;;
22965;SDS011;11649;48.090;9.754;2024-01-11T14:05:41;65.28;;;25.80;;
22965;SDS011;11649;48.090;9.754;2024-01-11T14:08:08;61.20;;;25.45;;
22965;SDS011;11649;48.090;9.754;2024-01-11T14:10:35;59.25;;;24.27;;
22965;SDS011;11649;48.090;9.754;2024-01-11T14:13:02;57.63;;;25.55;;
22965;SDS011;11649;48.090;9.754;2024-01-11T14:15:30;60.13;;;23.65;;
22965;SDS011;11649;48.090;9.754;2024-01-11T14:17:57;60.28;;;23.42;;
22965;SDS011;11649;48.090;9.754;2024-01-11T14:20:24;57.35;;;24.67;;
22965;SDS011;11649;48.090;9.754;2024-01-11T14:22:51;58.10;;;25.38;;
22965;SDS011;11649;48.090;9.754;2024-01-11T14:25:18;67.72;;;26.90;;
22965;SDS011;11649;48.090;9.754;2024-01-11T14:27:47;64.40;;;25.85;;
22965;SDS011;11649;48.090;9.754;2024-01-11T14:30:15;56.22;;;24.52;;